Hopedale, Ohio
Current Conditions -  °F | °C
As of 2:53 AM on Tuesday 21 Oct 2014 (Local Time) from KHLG Reporting Station
Overcast Overcast  
Wind Chill:   Ceiling: 1700
Heat Index:   Visibility: 10mi
Dew Point:   Wind: 6mph
Humidity: 93%   Direction: 230°SW
Pressure: 29.86"   Gusts: NA
Location:  40.33°N, 80.9°W
Report Text: KHLG 210653Z AUTO 23005KT 10SM OVC017 09/08 A2986 RMK AO2 RAE05 SLP115 P0000 T00940083
Loading
Personal Weather Stations






























Interactive Weather Map
Tropical Storm Tracking
New forecast layout! Learn more

10-Day Weather Forecast

Advertisements
Track Severe Weather on mobile